Time;durP1;ratioP1;P1;durP2;ratioP2;P2;SDS_P1;SDS_P2;PMS_P1;PMS_P2;Temp;Humidity;BMP_temperature;BMP_pressure;BME280_temperature;BME280_humidity;BME280_pressure;Samples;Min_cycle;Max_cycle;Signal;HPM_P1;HPM_P2
2022/08/27 00:01:10;;;;;;;6.67;5.30;;;;;;;23.74;43.71;98774.77;1662974;86;21564;-42
2022/08/27 00:03:36;;;;;;;18.73;5.10;;;;;;;23.69;44.12;98779.32;1662724;86;21011;-56
2022/08/27 00:06:03;;;;;;;9.25;5.00;;;;;;;23.69;44.15;98777.16;1662835;86;21007;-47
2022/08/27 00:08:29;;;;;;;9.50;5.20;;;;;;;23.68;44.20;98779.50;1663036;86;21219;-47
2022/08/27 00:10:56;;;;;;;9.28;5.35;;;;;;;23.65;44.17;98777.17;1663012;86;21629;-55
2022/08/27 00:13:21;;;;;;;8.55;5.55;;;;;;;23.60;44.49;98772.88;1663203;86;21058;-55
2022/08/27 00:15:48;;;;;;;8.85;5.42;;;;;;;23.58;44.32;98773.05;1662901;86;21012;-48
2022/08/27 00:18:14;;;;;;;14.05;4.97;;;;;;;23.55;44.48;98768.04;1662927;85;21015;-52
2022/08/27 00:20:39;;;;;;;10.70;5.03;;;;;;;23.53;44.69;98771.41;1662837;86;21116;-51
2022/08/27 00:23:05;;;;;;;12.13;5.30;;;;;;;23.50;45.07;98779.81;1662822;86;21004;-51
2022/08/27 00:25:31;;;;;;;8.48;5.50;;;;;;;23.45;45.10;98786.23;1662837;84;21011;-53
2022/08/27 00:27:57;;;;;;;12.30;5.22;;;;;;;23.41;45.33;98786.27;1662854;84;21011;-49
2022/08/27 00:30:23;;;;;;;12.80;5.97;;;;;;;23.41;45.15;98784.92;1662940;84;21525;-57
2022/08/27 00:32:49;;;;;;;7.67;5.40;;;;;;;23.37;45.17;98785.79;1663166;84;21059;-49
2022/08/27 00:35:17;;;;;;;12.05;5.20;;;;;;;23.34;45.32;98784.31;1662816;86;21023;-50
2022/08/27 00:37:44;;;;;;;8.73;5.25;;;;;;;23.31;45.67;98786.00;1662862;84;21596;-49
2022/08/27 00:40:15;;;;;;;7.92;5.25;;;;;;;23.27;45.68;98782.02;1663080;86;20996;-54
2022/08/27 00:42:41;;;;;;;9.35;5.67;;;;;;;23.25;45.90;98778.69;1662835;84;21019;-52
2022/08/27 00:45:08;;;;;;;8.13;5.65;;;;;;;23.21;45.98;98780.03;1662779;86;21027;-45
2022/08/27 00:47:40;;;;;;;11.25;5.33;;;;;;;23.18;45.98;98777.73;1660597;84;21055;-51
2022/08/27 00:50:11;;;;;;;8.53;5.37;;;;;;;23.17;46.02;98773.36;1651036;86;21016;-59
2022/08/27 00:52:53;;;;;;;5.72;4.90;;;;;;;23.14;45.97;98773.22;1650664;87;21048;-54
2022/08/27 00:55:30;;;;;;;7.05;5.33;;;;;;;23.13;45.94;98765.35;1651948;86;21035;-56
2022/08/27 00:58:04;;;;;;;13.43;5.37;;;;;;;23.11;45.97;98767.38;1651296;86;21072;-46
2022/08/27 01:00:29;;;;;;;8.33;5.40;;;;;;;23.08;46.03;98761.85;1650247;86;20996;-50
2022/08/27 01:02:55;;;;;;;8.75;5.20;;;;;;;23.06;46.28;98764.39;1651371;86;21497;-50
2022/08/27 01:05:28;;;;;;;8.70;5.10;;;;;;;23.04;46.26;98766.39;1651426;86;21635;-46
2022/08/27 01:07:56;;;;;;;7.80;5.03;;;;;;;23.00;46.67;98765.39;1650218;87;21056;-55
2022/08/27 01:10:25;;;;;;;11.22;5.00;;;;;;;22.98;46.69;98766.60;1649242;87;21493;-45
2022/08/27 01:12:53;;;;;;;9.95;5.00;;;;;;;22.97;46.45;98763.58;1650727;86;21027;-51
2022/08/27 01:15:21;;;;;;;10.28;5.03;;;;;;;22.94;46.32;98759.41;1650751;86;21051;-55
2022/08/27 01:17:48;;;;;;;9.60;5.28;;;;;;;22.94;46.26;98753.20;1650971;86;21051;-56
2022/08/27 01:20:18;;;;;;;;;;;;;;;22.93;46.45;98755.56;1653569;86;21020;-46
2022/08/27 01:23:04;;;;;;;10.70;5.20;;;;;;;22.88;47.56;98756.59;1650047;86;20534;-51
2022/08/27 01:25:30;;;;;;;11.03;5.23;;;;;;;22.86;46.49;98748.73;1651034;85;21019;-46
2022/08/27 01:27:59;;;;;;;13.88;5.42;;;;;;;22.85;46.72;98754.26;1650825;86;21261;-51
2022/08/27 01:30:26;;;;;;;8.20;5.50;;;;;;;22.84;46.73;98757.45;1650718;87;21464;-52
2022/08/27 01:32:52;;;;;;;10.33;5.23;;;;;;;22.82;46.87;98760.83;1651479;86;21512;-56
2022/08/27 01:35:19;;;;;;;8.53;5.15;;;;;;;22.81;47.14;98761.34;1651204;86;21012;-49
2022/08/27 01:37:49;;;;;;;8.85;5.50;;;;;;;22.81;46.87;98765.84;1650886;86;21019;-54
2022/08/27 01:40:18;;;;;;;9.88;5.08;;;;;;;22.81;46.93;98767.18;1650464;85;21025;-53
2022/08/27 01:42:48;;;;;;;6.90;5.10;;;;;;;22.78;47.09;98767.04;1650517;85;21082;-47
2022/08/27 01:45:23;;;;;;;9.55;5.28;;;;;;;22.75;46.93;98766.56;1651216;86;21024;-43
2022/08/27 01:47:49;;;;;;;8.35;4.85;;;;;;;22.72;46.95;98766.42;1647659;86;21032;-48
2022/08/27 01:50:27;;;;;;;9.33;5.55;;;;;;;22.70;46.97;98767.58;1670179;85;21485;-55
2022/08/27 01:52:55;;;;;;;7.83;5.58;;;;;;;22.69;47.03;98780.67;1679957;85;21471;-43
2022/08/27 01:55:25;;;;;;;10.13;4.85;;;;;;;22.67;47.04;98783.52;1681216;85;21006;-46
2022/08/27 01:57:53;;;;;;;5.97;4.65;;;;;;;22.66;47.45;98779.67;1681187;84;20981;-52
2022/08/27 02:00:27;;;;;;;8.30;4.97;;;;;;;22.62;47.34;98783.20;1681243;85;21017;-53
2022/08/27 02:02:55;;;;;;;11.63;4.62;;;;;;;22.62;47.28;98785.38;1680137;84;21021;-45
2022/08/27 02:05:22;;;;;;;8.83;4.97;;;;;;;22.61;47.24;98783.72;1681171;85;21025;-49
2022/08/27 02:07:48;;;;;;;10.40;5.33;;;;;;;22.59;47.06;98788.42;1681444;85;21526;-53
2022/08/27 02:10:19;;;;;;;6.20;5.33;;;;;;;22.59;47.06;98788.42;1681424;85;21013;-53
2022/08/27 02:12:45;;;;;;;12.30;5.67;;;;;;;22.59;47.43;98795.60;1681148;84;21021;-54
2022/08/27 02:15:11;;;;;;;8.38;5.03;;;;;;;22.59;47.32;98792.44;1681233;85;21049;-47
2022/08/27 02:17:37;;;;;;;17.57;5.40;;;;;;;22.59;47.16;98791.58;1681507;85;21062;-46
2022/08/27 02:20:07;;;;;;;7.25;5.00;;;;;;;22.57;47.20;98787.73;1680333;85;21590;-53
2022/08/27 02:22:33;;;;;;;7.20;5.08;;;;;;;22.56;47.20;98787.94;1681169;85;21067;-54
2022/08/27 02:24:59;;;;;;;11.85;5.03;;;;;;;22.55;47.22;98784.40;1681238;85;21029;-48
2022/08/27 02:27:24;;;;;;;10.05;5.15;;;;;;;22.51;47.52;98773.70;1681240;84;21013;-54
2022/08/27 02:29:50;;;;;;;12.68;5.60;;;;;;;22.47;47.70;98775.07;1681182;85;21526;-57
2022/08/27 02:32:17;;;;;;;13.80;5.83;;;;;;;22.46;47.54;98779.26;1681222;84;21006;-50
2022/08/27 02:34:43;;;;;;;10.75;6.22;;;;;;;22.44;47.96;98771.39;1681217;85;21009;-50
2022/08/27 02:37:09;;;;;;;9.78;5.40;;;;;;;22.41;47.93;98777.09;1681203;85;21512;-53
2022/08/27 02:39:34;;;;;;;7.55;5.95;;;;;;;22.37;47.83;98773.92;1681127;84;20998;-60
2022/08/27 02:42:00;;;;;;;6.72;5.25;;;;;;;22.36;47.63;98774.12;1688695;80;21131;-48
2022/08/27 02:44:26;;;;;;;7.58;6.00;;;;;;;22.35;47.73;98771.09;1708665;83;21027;-54
2022/08/27 02:46:53;;;;;;;12.45;5.90;;;;;;;22.32;47.86;98772.77;1708261;84;21626;-49
2022/08/27 02:49:18;;;;;;;11.22;5.50;;;;;;;22.30;47.97;98772.11;1685674;85;21043;-45
2022/08/27 02:51:44;;;;;;;7.20;5.65;;;;;;;22.29;48.05;98773.14;1685753;85;21149;-54
2022/08/27 02:54:10;;;;;;;9.90;5.90;;;;;;;22.27;48.30;98769.29;1685825;85;21666;-52
2022/08/27 02:56:38;;;;;;;11.88;5.60;;;;;;;22.27;48.13;98765.27;1685663;85;21058;-50
2022/08/27 02:59:04;;;;;;;8.98;5.30;;;;;;;22.22;48.32;98764.41;1685706;85;21023;-54
2022/08/27 03:01:30;;;;;;;6.83;5.25;;;;;;;22.22;48.29;98761.73;1686139;85;21011;-54
2022/08/27 03:03:56;;;;;;;7.92;5.42;;;;;;;22.19;48.14;98762.09;1685645;85;21500;-45
2022/08/27 03:06:22;;;;;;;8.88;5.53;;;;;;;22.18;48.01;98755.05;1685721;85;21015;-45
2022/08/27 03:08:47;;;;;;;8.13;5.05;;;;;;;22.19;47.96;98764.77;1685617;85;21042;-48
2022/08/27 03:11:13;;;;;;;9.63;5.33;;;;;;;22.17;48.18;98757.89;1685699;85;21395;-53
2022/08/27 03:13:39;;;;;;;10.95;5.58;;;;;;;22.16;48.14;98762.94;1685671;85;21015;-51
2022/08/27 03:16:06;;;;;;;8.48;5.33;;;;;;;22.14;48.31;98759.09;1685679;85;20976;-47
2022/08/27 03:18:33;;;;;;;7.78;5.58;;;;;;;22.15;48.12;98761.25;1685780;85;21016;-52
2022/08/27 03:21:00;;;;;;;13.50;5.80;;;;;;;22.14;48.15;98755.55;1685957;85;21038;-58
2022/08/27 03:23:33;;;;;;;7.72;5.67;;;;;;;22.12;48.23;98755.75;1685592;85;21516;-52
2022/08/27 03:26:03;;;;;;;10.38;5.53;;;;;;;22.10;48.19;98748.88;1685861;85;21023;-49
2022/08/27 03:28:33;;;;;;;10.82;5.70;;;;;;;22.07;48.44;98748.73;1685803;85;21043;-56
2022/08/27 03:31:03;;;;;;;7.53;5.30;;;;;;;22.06;48.33;98752.41;1685763;85;21063;-48
2022/08/27 03:33:34;;;;;;;10.38;5.80;;;;;;;22.06;48.68;98755.08;1685732;85;21015;-54
2022/08/27 03:35:59;;;;;;;10.15;5.28;;;;;;;22.07;48.62;98753.27;1685653;85;21042;-51
2022/08/27 03:38:26;;;;;;;10.35;5.62;;;;;;;22.06;48.58;98753.74;1685935;85;21552;-44
2022/08/27 03:40:52;;;;;;;8.95;5.78;;;;;;;22.07;48.55;98752.75;1685808;85;21011;-54
2022/08/27 03:43:21;;;;;;;7.78;5.47;;;;;;;22.05;48.83;98754.25;1659949;85;21046;-54
2022/08/27 03:45:48;;;;;;;13.13;5.35;;;;;;;22.07;48.89;98754.09;1681886;84;21552;-47
2022/08/27 03:48:14;;;;;;;8.95;5.78;;;;;;;22.06;49.16;98745.70;1716444;83;21034;-48
2022/08/27 03:50:45;;;;;;;6.47;5.40;;;;;;;22.05;48.99;98746.22;1716433;83;20956;-47
2022/08/27 03:53:12;;;;;;;11.60;5.87;;;;;;;22.05;49.19;98752.09;1716384;83;20990;-44
2022/08/27 03:55:40;;;;;;;8.43;5.80;;;;;;;22.02;49.32;98751.91;1716512;83;21551;-42
2022/08/27 03:58:06;;;;;;;11.73;5.28;;;;;;;22.02;49.49;98751.91;1716407;83;21035;-51
2022/08/27 04:00:32;;;;;;;8.50;5.28;;;;;;;22.03;49.58;98751.43;1716357;83;20998;-44
2022/08/27 04:02:58;;;;;;;8.55;5.33;;;;;;;22.03;49.50;98751.43;1716422;83;21014;-53
2022/08/27 04:05:23;;;;;;;11.05;5.65;;;;;;;22.05;49.21;98757.45;1716473;83;20995;-50
2022/08/27 04:07:49;;;;;;;12.85;5.25;;;;;;;22.07;49.39;98752.75;1716476;83;21495;-50
2022/08/27 04:10:16;;;;;;;14.07;5.15;;;;;;;22.07;49.52;98751.41;1716447;83;21030;-47
2022/08/27 04:12:43;;;;;;;9.53;5.42;;;;;;;22.06;49.89;98753.74;1716546;83;21503;-57
2022/08/27 04:15:11;;;;;;;10.28;5.53;;;;;;;22.05;49.98;98760.95;1716560;83;20998;-52
2022/08/27 04:17:38;;;;;;;12.03;4.95;;;;;;;22.06;50.09;98760.44;1716254;83;21452;-58
2022/08/27 04:20:06;;;;;;;9.45;5.70;;;;;;;22.05;50.29;98750.75;1716481;83;21540;-48
2022/08/27 04:22:33;;;;;;;7.50;5.08;;;;;;;22.05;50.64;98748.91;1716381;83;21030;-46
2022/08/27 04:24:59;;;;;;;7.83;5.17;;;;;;;22.06;50.42;98748.39;1716362;83;21047;-46
2022/08/27 04:27:26;;;;;;;12.55;5.47;;;;;;;22.07;50.38;98747.91;1716587;83;21003;-54
2022/08/27 04:29:57;;;;;;;8.10;5.58;;;;;;;22.09;50.23;98747.23;1716486;83;21532;-54
2022/08/27 04:32:24;;;;;;;8.55;5.67;;;;;;;22.11;50.17;98746.03;1716315;83;20968;-56
2022/08/27 04:34:57;;;;;;;6.92;5.78;;;;;;;22.13;50.16;98745.87;1716453;83;21006;-47
2022/08/27 04:37:24;;;;;;;12.23;5.22;;;;;;;22.13;50.39;98750.71;1715887;83;20979;-48
2022/08/27 04:39:51;;;;;;;12.78;5.80;;;;;;;22.15;50.23;98748.69;1716489;83;21007;-54
2022/08/27 04:42:20;;;;;;;14.90;5.80;;;;;;;22.16;50.59;98758.92;1716405;81;21067;-51
2022/08/27 04:44:46;;;;;;;11.15;6.45;;;;;;;22.20;50.27;98757.56;1716259;83;21037;-52
2022/08/27 04:47:13;;;;;;;12.93;7.15;;;;;;;22.25;51.01;98761.91;1716485;83;21027;-53
2022/08/27 04:49:40;;;;;;;11.48;7.65;;;;;;;22.27;50.61;98755.89;1716519;83;21506;-50
2022/08/27 04:52:06;;;;;;;21.10;8.38;;;;;;;22.30;50.68;98756.05;1716515;83;21422;-47
2022/08/27 04:54:33;;;;;;;14.10;8.55;;;;;;;22.33;50.65;98760.55;1716341;83;21034;-56
2022/08/27 04:57:00;;;;;;;15.83;8.63;;;;;;;22.37;50.76;98765.05;1716507;83;20998;-48
2022/08/27 04:59:25;;;;;;;;;;;;;;;22.41;50.61;98767.23;1718899;82;21429;-55
2022/08/27 05:01:51;;;;;;;18.32;8.95;;;;;;;22.43;51.11;98763.87;1716753;83;20135;-56
2022/08/27 05:04:18;;;;;;;18.92;9.68;;;;;;;22.50;50.40;98763.98;1716371;83;21626;-49
2022/08/27 05:06:44;;;;;;;19.07;9.43;;;;;;;22.55;50.84;98762.97;1716648;83;21449;-52
2022/08/27 05:09:13;;;;;;;18.50;8.70;;;;;;;22.64;50.27;98765.62;1716112;83;21023;-50
2022/08/27 05:11:40;;;;;;;16.23;8.10;;;;;;;22.68;50.11;98765.59;1716233;83;21010;-57
2022/08/27 05:14:10;;;;;;;14.28;7.80;;;;;;;22.74;50.57;98772.44;1716542;83;21026;-48
2022/08/27 05:16:37;;;;;;;10.63;5.72;;;;;;;22.80;50.56;98768.20;1716370;83;21022;-54
2022/08/27 05:19:07;;;;;;;14.15;6.78;;;;;;;22.84;50.28;98763.33;1716392;83;20960;-52
2022/08/27 05:21:37;;;;;;;11.63;6.30;;;;;;;22.89;50.21;98767.15;1716406;83;20967;-56
2022/08/27 05:24:06;;;;;;;14.55;5.92;;;;;;;22.93;49.85;98763.09;1716279;83;20995;-48
2022/08/27 05:26:35;;;;;;;11.53;6.10;;;;;;;22.99;49.83;98762.89;1716222;83;21014;-51
2022/08/27 05:29:02;;;;;;;8.28;5.50;;;;;;;23.05;50.15;98757.34;1716100;83;21055;-57
2022/08/27 05:31:28;;;;;;;11.22;5.95;;;;;;;23.06;50.18;98762.54;1716364;83;21006;-50
2022/08/27 05:33:55;;;;;;;13.87;6.20;;;;;;;23.12;49.83;98759.64;1716524;83;20994;-52
2022/08/27 05:36:26;;;;;;;10.60;6.20;;;;;;;23.17;49.43;98758.61;1716648;83;21038;-46
2022/08/27 05:38:54;;;;;;;9.90;5.97;;;;;;;23.22;49.17;98758.91;1715720;83;21484;-47
2022/08/27 05:41:24;;;;;;;10.95;6.30;;;;;;;23.28;49.23;98759.52;1716229;83;20987;-48
2022/08/27 05:43:52;;;;;;;11.97;5.78;;;;;;;23.32;49.18;98750.61;1739119;81;20999;-55
2022/08/27 05:46:19;;;;;;;;;;;;;;;23.33;49.36;98754.46;1747133;82;20985;-47
2022/08/27 05:48:45;;;;;;;8.75;5.70;;;;;;;23.35;50.08;98752.43;1744345;82;20108;-49
2022/08/27 05:51:19;;;;;;;10.38;5.70;;;;;;;23.38;49.14;98749.39;1744360;81;20971;-57
2022/08/27 05:53:46;;;;;;;10.53;6.75;;;;;;;23.42;49.18;98754.41;1744346;82;21651;-57
2022/08/27 05:56:15;;;;;;;9.03;6.00;;;;;;;23.44;49.28;98755.88;1744476;82;21014;-62
2022/08/27 06:01:26;;;;;;;10.78;6.53;;;;;;;23.49;49.58;98756.70;1744318;82;21001;-55
2022/08/27 06:03:53;;;;;;;16.70;6.62;;;;;;;23.50;49.65;98757.86;1744268;82;21605;-56
2022/08/27 06:06:21;;;;;;;12.20;6.28;;;;;;;23.52;49.54;98757.66;1744430;81;20950;-46
2022/08/27 06:08:49;;;;;;;8.70;6.40;;;;;;;23.54;49.69;98754.31;1744288;82;20943;-46
2022/08/27 06:11:18;;;;;;;8.90;6.15;;;;;;;23.57;50.02;98752.58;1744349;82;20998;-61
2022/08/27 06:13:43;;;;;;;11.65;6.08;;;;;;;23.59;49.25;98761.28;1744300;82;21464;-52
2022/08/27 06:16:13;;;;;;;11.18;7.22;;;;;;;23.58;49.49;98750.23;1744530;81;21014;-46
2022/08/27 06:18:40;;;;;;;13.60;6.78;;;;;;;23.61;49.49;98753.05;1744285;81;20951;-54
2022/08/27 06:21:07;;;;;;;13.18;6.75;;;;;;;23.61;49.38;98755.73;1744322;82;21009;-51
2022/08/27 06:23:34;;;;;;;20.00;6.20;;;;;;;23.61;49.67;98755.22;1744537;82;20982;-58
2022/08/27 06:26:00;;;;;;;12.88;6.60;;;;;;;23.63;49.42;98760.41;1744449;81;21569;-49
2022/08/27 06:28:30;;;;;;;11.28;6.45;;;;;;;23.63;49.67;98763.95;1744571;82;20986;-44
2022/08/27 06:31:09;;;;;;;13.95;6.95;;;;;;;23.62;50.15;98760.93;1743766;81;21573;-43
2022/08/27 06:33:38;;;;;;;11.20;6.47;;;;;;;23.64;50.15;98756.21;1742010;81;20987;-47
2022/08/27 06:36:08;;;;;;;17.37;6.58;;;;;;;23.66;49.95;98758.20;1744267;82;20994;-49
2022/08/27 06:38:35;;;;;;;12.78;6.50;;;;;;;23.68;50.48;98754.00;1744324;81;20943;-51
2022/08/27 06:41:09;;;;;;;13.18;6.83;;;;;;;23.70;50.37;98753.30;1744416;81;20974;-54
2022/08/27 06:43:38;;;;;;;15.13;6.72;;;;;;;23.73;50.08;98757.80;1753281;81;21041;-50
2022/08/27 06:46:07;;;;;;;11.80;7.00;;;;;;;23.79;50.41;98756.75;1759947;81;20961;-43
2022/08/27 06:48:33;;;;;;;14.25;6.75;;;;;;;23.82;50.26;98763.96;1759983;81;21012;-51
2022/08/27 06:50:59;;;;;;;14.60;6.80;;;;;;;23.87;50.35;98762.09;1760054;81;20954;-53
2022/08/27 06:53:25;;;;;;;14.98;6.65;;;;;;;23.90;50.02;98759.01;1760348;81;20969;-54
2022/08/27 06:55:51;;;;;;;15.85;7.05;;;;;;;23.95;49.79;98757.95;1760049;81;20977;-47
2022/08/27 06:58:19;;;;;;;15.68;6.67;;;;;;;24.01;49.70;98759.89;1759978;81;20993;-47
2022/08/27 07:00:45;;;;;;;13.70;6.42;;;;;;;24.07;49.62;98761.86;1760209;81;20969;-49
2022/08/27 07:03:11;;;;;;;10.65;6.35;;;;;;;24.13;49.99;98762.97;1759956;81;20974;-50
2022/08/27 07:05:39;;;;;;;11.00;6.12;;;;;;;24.18;49.64;98763.77;1759995;81;20982;-58
2022/08/27 07:08:07;;;;;;;9.90;6.83;;;;;;;24.22;49.47;98760.52;1759984;81;20981;-47
2022/08/27 07:10:33;;;;;;;14.20;6.20;;;;;;;24.28;49.42;98765.65;1759943;81;21024;-46
2022/08/27 07:13:00;;;;;;;8.83;6.12;;;;;;;24.32;49.21;98760.22;1760221;81;21477;-48
2022/08/27 07:15:26;;;;;;;16.05;7.03;;;;;;;24.38;49.21;98762.70;1760362;81;21491;-51
2022/08/27 07:17:52;;;;;;;9.58;6.42;;;;;;;24.44;48.99;98763.28;1760146;81;20977;-53
2022/08/27 07:20:19;;;;;;;12.95;6.25;;;;;;;24.48;48.92;98762.70;1760157;81;20981;-50
2022/08/27 07:22:46;;;;;;;8.25;6.17;;;;;;;24.55;48.75;98766.03;1760127;81;20986;-51
2022/08/27 07:25:18;;;;;;;12.15;6.22;;;;;;;24.59;48.45;98760.59;1760237;81;21454;-49
2022/08/27 07:27:43;;;;;;;10.45;5.50;;;;;;;24.65;48.42;98762.03;1760007;81;20985;-54
2022/08/27 07:30:14;;;;;;;11.05;5.70;;;;;;;24.73;48.53;98757.57;1760121;81;20949;-54
2022/08/27 07:32:40;;;;;;;12.95;6.50;;;;;;;24.78;48.19;98754.62;1760256;81;20985;-49
2022/08/27 07:35:08;;;;;;;12.63;5.73;;;;;;;24.86;48.36;98755.84;1760467;81;20945;-51
2022/08/27 07:37:36;;;;;;;19.90;6.15;;;;;;;24.91;47.88;98755.29;1760050;81;21571;-51
2022/08/27 07:40:09;;;;;;;8.18;5.97;;;;;;;24.99;47.20;98751.12;1760215;81;20989;-50
2022/08/27 07:45:19;;;;;;;8.95;6.40;;;;;;;25.13;47.19;98745.38;1726789;82;21435;-43
2022/08/27 07:47:45;;;;;;;10.93;6.03;;;;;;;25.21;47.00;98751.98;1744499;82;20989;-44
2022/08/27 07:50:11;;;;;;;13.45;5.97;;;;;;;25.28;46.96;98750.71;1744347;82;20989;-51
2022/08/27 07:52:37;;;;;;;22.50;9.48;;;;;;;25.36;46.88;98750.59;1744387;82;20974;-54
2022/08/27 07:55:04;;;;;;;14.30;6.67;;;;;;;25.43;46.58;98756.02;1744409;81;21081;-51
2022/08/27 07:57:31;;;;;;;8.43;5.65;;;;;;;25.51;46.44;98765.31;1744638;82;20978;-49
2022/08/27 07:59:57;;;;;;;8.80;5.62;;;;;;;25.55;46.14;98761.20;1744550;82;21463;-47
2022/08/27 08:02:23;;;;;;;16.87;6.25;;;;;;;25.60;45.68;98757.94;1744512;81;21490;-48
2022/08/27 08:04:49;;;;;;;15.03;5.90;;;;;;;25.65;46.17;98759.02;1744318;81;20982;-49
2022/08/27 08:07:15;;;;;;;10.10;5.72;;;;;;;25.72;45.86;98756.88;1744400;82;21103;-54
2022/08/27 08:09:41;;;;;;;12.67;5.43;;;;;;;25.79;46.10;98757.76;1744641;82;21005;-48
2022/08/27 08:12:07;;;;;;;18.87;7.10;;;;;;;25.84;45.55;98758.01;1744382;81;21622;-50
2022/08/27 08:14:33;;;;;;;23.30;8.05;;;;;;;25.90;45.24;98755.86;1744398;82;20963;-55
2022/08/27 08:17:00;;;;;;;9.98;6.12;;;;;;;25.98;45.02;98761.14;1744416;82;20994;-52
2022/08/27 08:19:27;;;;;;;32.85;7.42;;;;;;;26.03;44.57;98751.95;1744378;81;21021;-43
2022/08/27 08:21:53;;;;;;;12.75;6.35;;;;;;;26.12;44.34;98755.83;1744576;82;21407;-49
2022/08/27 08:24:20;;;;;;;14.75;5.37;;;;;;;26.20;44.63;98756.50;1744348;81;20982;-55
2022/08/27 08:26:45;;;;;;;12.05;6.12;;;;;;;26.27;44.65;98759.25;1744511;81;21026;-46
2022/08/27 08:29:12;;;;;;;9.78;5.60;;;;;;;26.33;44.92;98765.17;1744397;82;21034;-54
2022/08/27 08:31:40;;;;;;;10.58;5.65;;;;;;;26.38;44.64;98764.59;1744513;82;20955;-54
2022/08/27 08:34:07;;;;;;;11.33;6.08;;;;;;;26.44;44.27;98767.82;1744452;82;21013;-49
2022/08/27 08:36:32;;;;;;;11.43;5.20;;;;;;;26.49;44.00;98765.36;1744520;82;20973;-58
2022/08/27 08:38:58;;;;;;;8.53;5.37;;;;;;;26.56;42.89;98768.92;1744354;82;20982;-43
2022/08/27 08:41:48;;;;;;;6.58;5.10;;;;;;;26.64;43.16;98771.98;1744360;82;20982;-54
2022/08/27 08:44:32;;;;;;;11.65;5.67;;;;;;;26.74;43.00;98775.15;1754670;81;21454;-40
2022/08/27 08:47:14;;;;;;;12.30;5.78;;;;;;;26.85;43.05;98772.88;1760090;81;21447;-46
2022/08/27 08:49:54;;;;;;;8.48;5.80;;;;;;;26.97;43.07;98777.48;1759820;81;20962;-44
2022/08/27 08:52:36;;;;;;;6.45;4.90;;;;;;;27.10;42.94;98774.51;1760121;81;20954;-46
2022/08/27 08:55:33;;;;;;;10.98;5.70;;;;;;;27.23;42.65;98771.00;1760343;81;20976;-52
2022/08/27 08:58:45;;;;;;;19.48;5.28;;;;;;;27.37;42.78;98770.84;1760086;81;21013;-53
2022/08/27 09:01:15;;;;;;;16.90;4.78;;;;;;;27.54;41.78;98771.28;1759441;81;20962;-60
2022/08/27 09:03:52;;;;;;;16.70;5.22;;;;;;;27.76;40.90;98765.64;1760022;81;20957;-59
2022/08/27 09:06:38;;;;;;;6.08;4.60;;;;;;;27.97;40.96;98765.98;1758871;81;20945;-48
2022/08/27 09:09:21;;;;;;;9.38;4.85;;;;;;;28.17;39.93;98759.17;1759881;81;20950;-52
2022/08/27 09:12:10;;;;;;;12.45;5.70;;;;;;;28.40;39.82;98769.52;1755104;81;21458;-50
2022/08/27 09:14:50;;;;;;;9.58;4.97;;;;;;;28.69;39.05;98770.89;1759631;81;21009;-49
2022/08/27 09:17:16;;;;;;;8.95;4.97;;;;;;;28.95;39.01;98776.39;1760005;81;20981;-54
2022/08/27 09:19:42;;;;;;;8.58;4.78;;;;;;;29.33;34.12;98779.09;1760260;81;20977;-49
2022/08/27 09:22:40;;;;;;;9.83;5.40;;;;;;;29.70;37.05;98779.22;1760409;81;20981;-48
2022/08/27 09:25:26;;;;;;;10.48;4.50;;;;;;;30.22;37.38;98777.08;1759796;81;20981;-48
2022/08/27 09:27:57;;;;;;;5.50;4.15;;;;;;;30.99;36.79;98777.96;1760171;81;21336;-44
2022/08/27 09:30:30;;;;;;;7.53;4.22;;;;;;;31.68;35.73;98780.30;1760142;81;20949;-52
2022/08/27 09:33:03;;;;;;;9.73;4.50;;;;;;;32.33;34.90;98767.12;1760119;81;21118;-54
2022/08/27 09:35:43;;;;;;;6.70;3.95;;;;;;;32.88;33.28;98771.23;1759564;81;21032;-50
2022/08/27 09:38:12;;;;;;;6.35;4.58;;;;;;;33.42;32.59;98775.52;1757234;81;20946;-51
2022/08/27 09:40:43;;;;;;;9.18;4.22;;;;;;;33.95;31.71;98774.20;1758261;81;20970;-50
2022/08/27 09:43:23;;;;;;;12.95;9.00;;;;;;;34.37;31.48;98775.63;1755830;80;21058;-45
2022/08/27 09:45:54;;;;;;;10.05;4.65;;;;;;;34.83;29.68;98776.74;1741887;82;20998;-41
2022/08/27 09:48:28;;;;;;;5.28;4.03;;;;;;;35.13;28.81;98773.48;1740992;82;21038;-52
2022/08/27 09:51:11;;;;;;;4.47;3.45;;;;;;;35.42;28.68;98771.88;1739410;82;21483;-44
2022/08/27 09:53:44;;;;;;;8.93;3.58;;;;;;;35.81;28.51;98779.88;1742571;81;20975;-41
2022/08/27 09:56:30;;;;;;;31.02;5.33;;;;;;;36.11;26.91;98775.13;1742690;82;21014;-53
2022/08/27 09:59:11;;;;;;;4.42;3.62;;;;;;;36.50;27.90;98776.20;1743014;82;21026;-48
2022/08/27 10:01:53;;;;;;;6.25;3.50;;;;;;;36.69;27.24;98770.55;1742732;81;21056;-51
2022/08/27 10:04:36;;;;;;;8.53;4.10;;;;;;;37.08;27.14;98767.34;1737426;82;21019;-52
2022/08/27 10:07:32;;;;;;;10.40;3.90;;;;;;;37.39;25.10;98771.52;1742121;82;20978;-49
2022/08/27 10:10:37;;;;;;;6.87;3.85;;;;;;;37.63;24.71;98773.74;1733170;82;21442;-48
2022/08/27 10:13:17;;;;;;;7.10;3.67;;;;;;;38.00;23.65;98776.70;1742714;82;20975;-53
2022/08/27 10:15:51;;;;;;;9.10;3.77;;;;;;;37.80;22.22;98771.55;1742729;82;21042;-46
2022/08/27 10:18:40;;;;;;;9.28;3.92;;;;;;;38.26;21.89;98769.80;1739468;82;20979;-45
2022/08/27 10:21:31;;;;;;;9.78;3.40;;;;;;;38.45;22.08;98769.45;1742693;82;20962;-48
2022/08/27 10:24:26;;;;;;;8.03;3.83;;;;;;;38.54;22.10;98771.89;1740503;82;20990;-47
2022/08/27 10:27:19;;;;;;;7.47;3.92;;;;;;;38.92;21.53;98775.02;1741768;82;20954;-46
2022/08/27 10:29:50;;;;;;;9.23;3.65;;;;;;;39.12;21.81;98776.03;1742759;82;20978;-49
2022/08/27 10:32:51;;;;;;;6.92;3.67;;;;;;;39.29;21.37;98772.88;1742268;82;20982;-46
2022/08/27 10:35:23;;;;;;;6.33;3.00;;;;;;;39.48;21.64;98770.30;1742638;82;20987;-50
2022/08/27 10:38:15;;;;;;;8.18;3.17;;;;;;;39.69;19.36;98777.23;1735410;82;20951;-50
2022/08/27 10:41:16;;;;;;;7.85;3.58;;;;;;;39.91;19.71;98770.45;1741906;82;21006;-45
2022/08/27 10:44:11;;;;;;;7.00;3.25;;;;;;;40.17;18.58;98776.53;1740871;82;21051;-49
2022/08/27 10:46:48;;;;;;;9.33;3.37;;;;;;;40.30;20.38;98770.30;1742386;82;21071;-53
2022/08/27 10:49:32;;;;;;;3.52;3.20;;;;;;;40.54;19.12;98772.25;1717393;83;21048;-39
2022/08/27 10:52:20;;;;;;;8.80;3.15;;;;;;;40.69;18.17;98781.68;1706135;83;21514;-49
2022/08/27 10:55:22;;;;;;;3.87;2.90;;;;;;;40.80;17.84;98776.07;1717587;83;21008;-47
2022/08/27 10:58:06;;;;;;;12.78;3.47;;;;;;;41.14;18.02;98770.33;1717597;83;21533;-47
2022/08/27 11:00:46;;;;;;;8.28;3.60;;;;;;;41.22;17.92;98780.70;1717699;83;21017;-45
2022/08/27 11:03:27;;;;;;;6.03;3.02;;;;;;;41.28;19.08;98777.33;1717369;83;21068;-54
2022/08/27 11:05:55;;;;;;;8.00;3.10;;;;;;;41.58;18.04;98773.80;1713953;83;21049;-48
2022/08/27 11:08:38;;;;;;;5.78;3.30;;;;;;;41.78;19.25;98768.50;1693599;83;21537;-51
2022/08/27 11:11:14;;;;;;;6.30;3.37;;;;;;;41.86;17.14;98778.02;1647638;87;21058;-48
2022/08/27 11:13:48;;;;;;;12.00;3.33;;;;;;;41.94;17.10;98773.99;1648203;85;21058;-51
2022/08/27 11:16:26;;;;;;;11.43;3.40;;;;;;;42.13;17.29;98772.55;1649544;86;21035;-45
2022/08/27 11:19:22;;;;;;;4.85;3.20;;;;;;;42.49;16.50;98771.05;1648228;85;21091;-49
2022/08/27 11:22:20;;;;;;;9.60;3.17;;;;;;;42.41;17.25;98768.95;1649109;86;21004;-48
2022/08/27 11:24:57;;;;;;;8.78;2.98;;;;;;;42.20;16.24;98772.15;1648565;85;21087;-47
2022/08/27 11:27:28;;;;;;;13.38;3.30;;;;;;;42.44;14.78;98769.73;1660968;85;21066;-50
2022/08/27 11:30:11;;;;;;;10.55;3.33;;;;;;;42.78;15.47;98777.59;1661518;85;22241;-50
2022/08/27 11:33:16;;;;;;;14.35;3.98;;;;;;;42.91;14.95;98767.66;1662129;86;21531;-46
2022/08/27 11:36:10;;;;;;;6.87;3.40;;;;;;;43.09;15.21;98766.67;1662035;85;21511;-49
2022/08/27 11:38:45;;;;;;;;;;;;;;;43.41;14.56;98768.98;1664493;85;21043;-54
2022/08/27 11:41:42;;;;;;;9.73;3.37;;;;;;;43.04;16.76;98764.02;1706756;84;20407;-45
2022/08/27 11:44:09;;;;;;;7.97;3.80;;;;;;;43.46;15.92;98763.33;1706605;83;21000;-49
2022/08/27 11:46:57;;;;;;;8.43;3.22;;;;;;;43.50;13.69;98763.52;1684108;85;21019;-47
2022/08/27 11:49:31;;;;;;;6.80;4.78;;;;;;;43.82;14.45;98761.59;1687813;85;21015;-48
2022/08/27 11:52:05;;;;;;;10.10;3.27;;;;;;;43.89;14.24;98759.98;1683953;85;21738;-49
2022/08/27 11:54:51;;;;;;;4.97;2.75;;;;;;;44.07;13.41;98750.37;1684300;85;21058;-46